Time;durP1;ratioP1;P1;durP2;ratioP2;P2;SDS_P1;SDS_P2;PMS_P1;PMS_P2;Temp;Humidity;BMP_temperature;BMP_pressure;BME280_temperature;BME280_humidity;BME280_pressure;Samples;Min_cycle;Max_cycle;Signal;HPM_P1;HPM_P2
2022/09/26 00:00:06;;;;;;;94.03;56.97;;;9.90;99.90;;;;;;9859978;30;20050;-80
2022/09/26 00:05:09;;;;;;;115.83;60.83;;;9.90;99.90;;;;;;9844132;30;20055;-81
2022/09/26 00:10:10;;;;;;;137.30;59.05;;;9.90;99.90;;;;;;9844312;30;20047;-80
2022/09/26 00:15:11;;;;;;;92.40;54.80;;;9.70;99.90;;;;;;9859708;30;20078;-80
2022/09/26 00:20:11;;;;;;;114.80;60.00;;;9.70;99.90;;;;;;9859942;30;20048;-80
2022/09/26 00:25:12;;;;;;;117.97;64.83;;;9.60;99.90;;;;;;9859825;30;20509;-80
2022/09/26 00:30:12;;;;;;;110.70;59.70;;;9.60;99.90;;;;;;9860816;30;20051;-81
2022/09/26 00:35:13;;;;;;;105.00;59.70;;;9.60;99.90;;;;;;9858028;30;20058;-80
2022/09/26 00:40:15;;;;;;;111.03;62.75;;;9.70;99.90;;;;;;9859722;30;20110;-81
2022/09/26 00:45:16;;;;;;;111.70;62.85;;;9.80;99.90;;;;;;9859710;30;20035;-81
2022/09/26 00:50:26;;;;;;;102.57;60.05;;;9.80;99.90;;;;;;9858832;30;20035;-81
2022/09/26 00:55:35;;;;;;;113.53;63.80;;;9.90;99.90;;;;;;9842643;30;20071;-80
2022/09/26 01:00:37;;;;;;;95.75;58.50;;;10.00;99.90;;;;;;9866233;30;20433;-81
2022/09/26 01:05:37;;;;;;;101.47;61.33;;;10.00;99.90;;;;;;9865541;30;20125;-80
2022/09/26 01:10:38;;;;;;;112.35;64.43;;;10.10;99.90;;;;;;9864844;30;20128;-80
2022/09/26 01:15:39;;;;;;;106.20;62.95;;;10.10;99.90;;;;;;9865726;30;20047;-81
2022/09/26 01:21:07;;;;;;;114.67;65.47;;;10.10;99.90;;;;;;9864929;30;20059;-82
2022/09/26 01:26:33;;;;;;;134.57;71.03;;;10.10;99.90;;;;;;9865295;30;20039;-82
2022/09/26 01:32:47;;;;;;;141.88;71.30;;;10.00;99.90;;;;;;9845526;30;20031;-80
2022/09/26 01:37:30;;;;;;;108.50;61.07;;;10.00;99.90;;;;;;9864343;30;20056;-82
2022/09/26 01:43:01;;;;;;;98.68;60.10;;;10.00;99.90;;;;;;9864261;30;20051;-82
2022/09/26 01:48:01;;;;;;;101.27;58.73;;;10.10;99.90;;;;;;9859867;30;20024;-81
2022/09/26 01:53:19;;;;;;;105.90;61.63;;;10.00;99.90;;;;;;9860180;30;20035;-81
2022/09/26 01:58:33;;;;;;;95.50;57.27;;;10.00;99.90;;;;;;9865020;30;20407;-81
2022/09/26 02:03:45;;;;;;;79.07;49.53;;;10.00;99.90;;;;;;9859824;30;20051;-80
2022/09/26 02:08:52;;;;;;;98.70;57.23;;;10.00;99.90;;;;;;9863224;30;20685;-81
2022/09/26 02:14:14;;;;;;;115.77;63.63;;;10.00;99.90;;;;;;9858389;30;20055;-81
2022/09/26 02:19:21;;;;;;;106.27;59.37;;;10.00;99.90;;;;;;9846860;30;20202;-81
2022/09/26 02:24:22;;;;;;;96.80;54.67;;;10.00;99.90;;;;;;9864061;30;20082;-81
2022/09/26 02:29:23;;;;;;;88.43;52.00;;;10.00;99.90;;;;;;9862179;30;20151;-81
2022/09/26 02:34:24;;;;;;;105.97;56.27;;;10.00;99.90;;;;;;9862043;30;20457;-80
2022/09/26 02:39:25;;;;;;;102.57;54.50;;;9.90;99.90;;;;;;9862590;30;20162;-82
2022/09/26 02:44:50;;;;;;;117.47;59.47;;;9.80;99.90;;;;;;9862575;30;20112;-81
2022/09/26 02:50:16;;;;;;;98.87;53.23;;;9.80;99.90;;;;;;9859734;30;20048;-79
2022/09/26 02:55:38;;;;;;;79.47;48.15;;;9.70;99.90;;;;;;9859668;30;20122;-81
2022/09/26 03:01:03;;;;;;;80.30;48.63;;;9.80;99.90;;;;;;9851757;30;20469;-80
2022/09/26 03:06:07;;;;;;;84.83;50.33;;;9.80;99.90;;;;;;9861534;30;20576;-80
2022/09/26 03:11:11;;;;;;;136.55;59.60;;;9.80;99.90;;;;;;9842631;30;20301;-80
2022/09/26 03:16:13;;;;;;;112.70;53.73;;;9.80;99.90;;;;;;9858166;30;20130;-79
2022/09/26 03:21:14;;;;;;;100.23;53.70;;;9.80;99.90;;;;;;9860402;30;20043;-80
2022/09/26 03:26:18;;;;;;;100.27;53.67;;;9.80;99.90;;;;;;9860666;30;20489;-80
2022/09/26 03:31:20;;;;;;;88.00;51.47;;;9.80;99.90;;;;;;9861304;30;20045;-80
2022/09/26 03:36:22;;;;;;;104.53;55.30;;;9.70;99.90;;;;;;9859997;30;20066;-80
2022/09/26 03:41:23;;;;;;;87.97;50.73;;;9.70;99.90;;;;;;9861374;30;20043;-80
2022/09/26 03:46:23;;;;;;;89.23;53.47;;;9.70;99.90;;;;;;9860588;30;20492;-81
2022/09/26 03:51:24;;;;;;;104.47;58.20;;;9.80;99.90;;;;;;9859620;30;20101;-83
2022/09/26 03:56:25;;;;;;;85.07;52.15;;;9.90;99.90;;;;;;9860283;30;20052;-81
2022/09/26 04:01:27;;;;;;;98.40;52.43;;;10.00;99.90;;;;;;9859796;30;20140;-80
2022/09/26 04:06:27;;;;;;;73.22;44.85;;;10.00;99.90;;;;;;9859645;30;20044;-80
2022/09/26 04:11:28;;;;;;;86.93;49.47;;;10.00;99.90;;;;;;9856111;30;20039;-81
2022/09/26 04:16:29;;;;;;;68.90;44.35;;;10.10;99.90;;;;;;9857014;30;20493;-80
2022/09/26 04:21:29;;;;;;;67.53;43.53;;;10.10;99.90;;;;;;9858124;30;20066;-81
2022/09/26 04:26:30;;;;;;;77.07;45.50;;;10.10;99.90;;;;;;9860637;30;20481;-80
2022/09/26 04:31:33;;;;;;;103.13;57.35;;;10.10;99.90;;;;;;9858390;30;20088;-81
2022/09/26 04:36:33;;;;;;;121.40;58.17;;;10.10;99.90;;;;;;9867525;30;20409;-81
2022/09/26 04:41:35;;;;;;;93.88;56.90;;;10.10;99.90;;;;;;9863499;30;20039;-81
2022/09/26 04:46:36;;;;;;;88.07;54.88;;;10.20;99.90;;;;;;9867244;30;20028;-80
2022/09/26 04:51:36;;;;;;;92.80;53.58;;;10.20;99.90;;;;;;9867229;30;20579;-81
2022/09/26 04:56:37;;;;;;;79.28;53.10;;;10.30;99.90;;;;;;9866706;30;20047;-80
2022/09/26 05:01:37;;;;;;;123.70;61.42;;;10.40;99.90;;;;;;9866887;30;20056;-81
2022/09/26 05:06:38;;;;;;;110.57;60.78;;;10.30;99.90;;;;;;9866480;30;20135;-80
2022/09/26 05:11:39;;;;;;;120.78;63.67;;;10.30;99.90;;;;;;9866320;30;20123;-81
2022/09/26 05:16:39;;;;;;;95.53;55.83;;;10.40;99.90;;;;;;9865829;30;20052;-81
2022/09/26 05:21:41;;;;;;;100.45;56.55;;;10.40;99.90;;;;;;9866129;30;20035;-81
2022/09/26 05:26:48;;;;;;;90.43;54.53;;;10.50;99.90;;;;;;9866320;30;20038;-80
2022/09/26 05:31:50;;;;;;;102.80;58.35;;;10.60;99.90;;;;;;9866388;30;20070;-80
2022/09/26 05:36:51;;;;;;;89.85;54.78;;;10.60;99.90;;;;;;9865421;30;20040;-81
2022/09/26 05:41:53;;;;;;;104.05;58.60;;;10.70;99.90;;;;;;9858486;30;20035;-80
2022/09/26 05:46:56;;;;;;;103.25;60.88;;;10.70;99.90;;;;;;9865443;30;20044;-81
2022/09/26 05:51:56;;;;;;;103.00;61.10;;;10.80;99.90;;;;;;9848726;30;20044;-81
2022/09/26 05:56:57;;;;;;;106.15;59.58;;;10.80;99.90;;;;;;9864849;30;20051;-81
2022/09/26 06:01:57;;;;;;;94.70;60.63;;;10.90;99.90;;;;;;9864372;30;20064;-81
2022/09/26 06:06:58;;;;;;;91.40;59.28;;;11.00;99.90;;;;;;9864724;30;20050;-81
2022/09/26 06:11:58;;;;;;;93.28;58.13;;;11.10;99.90;;;;;;9864230;30;20549;-82
2022/09/26 06:16:59;;;;;;;90.88;56.92;;;11.20;99.90;;;;;;9863761;30;20136;-81
2022/09/26 06:21:59;;;;;;;92.07;57.05;;;11.20;99.90;;;;;;9863752;30;20521;-81
2022/09/26 06:27:00;;;;;;;98.50;56.47;;;11.30;99.90;;;;;;9864483;30;20031;-81
2022/09/26 06:32:01;;;;;;;95.90;58.78;;;11.30;99.90;;;;;;9863392;30;20507;-81
2022/09/26 06:37:01;;;;;;;92.45;58.83;;;11.40;99.90;;;;;;9863059;30;20558;-82
2022/09/26 06:42:04;;;;;;;99.85;61.08;;;11.50;99.90;;;;;;9863028;30;20109;-80
2022/09/26 06:47:05;;;;;;;87.75;55.35;;;11.60;99.90;;;;;;9862972;30;20496;-80
2022/09/26 06:52:05;;;;;;;92.22;58.38;;;11.70;99.90;;;;;;9863188;30;20034;-81
2022/09/26 06:57:06;;;;;;;84.55;53.22;;;11.80;99.90;;;;;;9862094;30;20067;-82
2022/09/26 07:02:08;;;;;;;89.20;54.50;;;11.90;99.90;;;;;;9862328;30;20608;-81
2022/09/26 07:07:08;;;;;;;84.95;52.38;;;11.90;99.90;;;;;;9862735;30;20388;-81
2022/09/26 07:12:09;;;;;;;81.32;54.03;;;12.00;99.90;;;;;;9862469;30;20039;-82
2022/09/26 07:17:14;;;;;;;87.57;54.53;;;12.00;99.90;;;;;;9862245;30;20547;-81
2022/09/26 07:22:15;;;;;;;81.03;52.55;;;12.10;99.90;;;;;;9861973;30;20028;-81
2022/09/26 07:27:16;;;;;;;76.72;51.03;;;12.30;99.90;;;;;;9861977;30;20066;-82
2022/09/26 07:32:17;;;;;;;73.20;48.08;;;12.40;99.90;;;;;;9861234;30;20115;-81
2022/09/26 07:37:18;;;;;;;68.00;46.35;;;12.60;99.90;;;;;;9861473;30;20054;-80
2022/09/26 07:42:18;;;;;;;83.75;58.13;;;12.60;99.90;;;;;;9861029;30;20548;-80
2022/09/26 07:52:39;;;;;;;76.18;50.60;;;12.70;99.90;;;;;;9860515;30;20052;-81
2022/09/26 07:57:40;;;;;;;71.75;47.80;;;12.70;99.90;;;;;;9860266;30;20051;-81
2022/09/26 08:02:44;;;;;;;72.55;48.60;;;12.90;99.90;;;;;;9844503;30;20071;-80
2022/09/26 08:07:45;;;;;;;72.28;47.70;;;13.00;99.90;;;;;;9864568;30;20389;-81
2022/09/26 08:12:47;;;;;;;69.55;46.78;;;12.90;99.90;;;;;;9852067;30;20421;-81
2022/09/26 08:17:48;;;;;;;76.05;49.75;;;12.90;99.90;;;;;;9867588;30;20055;-81
2022/09/26 08:22:48;;;;;;;81.25;51.97;;;13.00;99.90;;;;;;9868235;30;20385;-81
2022/09/26 08:27:50;;;;;;;77.03;51.33;;;13.00;99.90;;;;;;9867704;30;20090;-82
2022/09/26 08:32:58;;;;;;;85.40;54.85;;;13.10;99.90;;;;;;9867161;30;20131;-81
2022/09/26 08:38:02;;;;;;;85.82;54.13;;;13.10;99.90;;;;;;9867369;30;20047;-81
2022/09/26 08:43:30;;;;;;;83.40;55.63;;;13.10;99.90;;;;;;9866920;30;20043;-81
2022/09/26 08:48:33;;;;;;;88.50;55.38;;;13.10;99.90;;;;;;9835459;30;20101;-81
2022/09/26 08:53:46;;;;;;;91.53;59.20;;;13.10;99.90;;;;;;9860825;30;20545;-82
2022/09/26 08:58:51;;;;;;;84.57;55.35;;;13.20;99.90;;;;;;9867194;30;20397;-81
2022/09/26 09:04:30;;;;;;;83.82;54.40;;;13.50;99.90;;;;;;9850305;30;20059;-81
2022/09/26 09:09:30;;;;;;;77.72;51.92;;;13.70;99.90;;;;;;9863367;30;20035;-81
2022/09/26 09:14:34;;;;;;;73.15;49.30;;;13.90;99.90;;;;;;9866396;30;20538;-82
2022/09/26 09:20:16;;;;;;;67.35;45.63;;;13.90;99.90;;;;;;9865476;30;20477;-81
2022/09/26 09:25:30;;;;;;;62.55;44.20;;;14.10;99.90;;;;;;9830834;30;20044;-81
2022/09/26 09:30:46;;;;;;;63.25;44.75;;;14.20;99.90;;;;;;9866454;30;20597;-81
2022/09/26 09:35:54;;;;;;;66.60;43.92;;;14.30;99.90;;;;;;9850231;30;20511;-81
2022/09/26 09:41:12;;;;;;;65.78;44.92;;;14.30;99.90;;;;;;9865910;30;20039;-81
2022/09/26 09:46:29;;;;;;;59.05;42.33;;;14.40;99.90;;;;;;9866265;30;20435;-81
2022/09/26 09:51:42;;;;;;;68.38;43.75;;;14.40;99.90;;;;;;9859554;30;20128;-81
2022/09/26 09:57:07;;;;;;;67.57;44.72;;;14.40;99.90;;;;;;9865045;30;20497;-82
2022/09/26 10:02:18;;;;;;;62.70;44.00;;;14.40;99.90;;;;;;9864956;30;20071;-81
2022/09/26 10:07:19;;;;;;;61.90;41.90;;;14.60;99.90;;;;;;9865092;30;20047;-81
2022/09/26 10:12:29;;;;;;;55.90;38.75;;;14.90;99.90;;;;;;9848751;30;20032;-80
2022/09/26 10:17:30;;;;;;;51.47;37.00;;;15.20;99.90;;;;;;9864555;30;20036;-81
2022/09/26 10:22:36;;;;;;;48.53;34.08;;;15.20;99.90;;;;;;9865034;30;20094;-81
2022/09/26 10:27:38;;;;;;;52.45;36.13;;;15.20;99.90;;;;;;9864263;30;20664;-81
2022/09/26 10:32:46;;;;;;;40.13;28.00;;;15.10;99.90;;;;;;9851176;30;20536;-81
2022/09/26 10:38:05;;;;;;;33.33;23.20;;;15.10;99.90;;;;;;9857767;30;20040;-81
2022/09/26 10:43:51;;;;;;;28.35;20.60;;;15.40;99.90;;;;;;9861565;30;20500;-81
2022/09/26 10:48:56;;;;;;;44.42;30.52;;;15.20;99.90;;;;;;9712279;30;20793;-80
2022/09/26 10:54:10;;;;;;;119.60;87.05;;;15.00;99.90;;;;;;9833487;30;20076;-80
2022/09/26 10:59:14;;;;;;;136.52;100.13;;;14.90;99.90;;;;;;9862958;30;20119;-80
2022/09/26 11:09:47;;;;;;;86.10;58.42;;;14.50;99.90;;;;;;9858333;30;20040;-81
2022/09/26 11:14:53;;;;;;;37.20;27.15;;;14.60;99.90;;;;;;9862178;30;20485;-81
2022/09/26 11:20:01;;;;;;;75.00;50.90;;;14.70;99.90;;;;;;9851825;30;20374;-80
2022/09/26 11:25:10;;;;;;;33.42;24.92;;;14.90;99.90;;;;;;9855903;30;20176;-80
2022/09/26 11:30:19;;;;;;;69.78;42.92;;;15.10;99.90;;;;;;9862511;30;20036;-80
2022/09/26 11:35:28;;;;;;;29.17;21.15;;;15.40;99.90;;;;;;9841302;30;20108;-81
2022/09/26 11:41:00;;;;;;;27.02;19.77;;;15.90;99.90;;;;;;9861581;30;20032;-80
2022/09/26 11:46:34;;;;;;;31.33;23.80;;;16.50;99.90;;;;;;9858157;30;20046;-80
2022/09/26 11:52:02;;;;;;;42.72;31.40;;;16.80;99.90;;;;;;9861726;30;20038;-80
2022/09/26 11:57:43;;;;;;;116.97;63.38;;;17.10;99.90;;;;;;9848941;30;20051;-80
2022/09/26 12:03:28;;;;;;;28.90;18.23;;;17.40;99.90;;;;;;9709648;30;20073;-81
2022/09/26 12:08:46;;;;;;;17.50;13.02;;;17.30;99.90;;;;;;9849035;30;20056;-81
2022/09/26 12:14:04;;;;;;;21.05;14.48;;;17.20;99.90;;;;;;9853832;30;20686;-80
2022/09/26 12:19:33;;;;;;;20.75;14.40;;;17.10;99.90;;;;;;9859438;30;20032;-81
2022/09/26 12:25:06;;;;;;;27.20;17.33;;;17.00;99.90;;;;;;9860788;30;20035;-81
2022/09/26 12:30:15;;;;;;;20.38;14.02;;;17.00;99.90;;;;;;9851350;30;20044;-81
2022/09/26 12:35:31;;;;;;;28.45;16.25;;;17.00;99.90;;;;;;9853665;30;20056;-80
2022/09/26 12:41:13;;;;;;;11.93;9.38;;;17.20;99.90;;;;;;9860164;30;20480;-81
2022/09/26 12:46:40;;;;;;;12.50;9.40;;;17.40;99.90;;;;;;9851578;30;20047;-81
2022/09/26 12:51:47;;;;;;;13.25;9.68;;;17.80;99.90;;;;;;9855166;30;20059;-81
2022/09/26 12:57:20;;;;;;;10.73;8.95;;;18.10;99.90;;;;;;9832163;30;20047;-80
2022/09/26 13:02:50;;;;;;;26.50;16.42;;;18.30;99.90;;;;;;9862543;30;20058;-80
2022/09/26 13:08:01;;;;;;;13.70;9.77;;;18.20;99.90;;;;;;9858428;30;20066;-79
2022/09/26 13:13:21;;;;;;;13.25;9.13;;;17.90;99.90;;;;;;9855586;30;20378;-80
2022/09/26 13:18:28;;;;;;;20.25;13.02;;;18.00;99.90;;;;;;9860669;30;20040;-80
2022/09/26 13:24:08;;;;;;;17.20;10.85;;;18.20;99.90;;;;;;9865261;30;20122;-80
2022/09/26 13:29:20;;;;;;;15.43;9.15;;;18.30;99.90;;;;;;9861832;30;20047;-79
2022/09/26 13:34:44;;;;;;;8.00;6.50;;;18.10;99.90;;;;;;9857106;30;20509;-79
2022/09/26 13:39:57;;;;;;;8.13;6.28;;;17.80;99.90;;;;;;9864689;30;20358;-79
2022/09/26 13:45:04;;;;;;;7.70;5.90;;;17.60;99.90;;;;;;9863653;30;20038;-79
2022/09/26 13:50:33;;;;;;;7.72;6.38;;;17.90;99.90;;;;;;9862979;30;20097;-79
2022/09/26 13:55:34;;;;;;;8.70;6.63;;;18.10;99.90;;;;;;9863501;30;20108;-79
2022/09/26 14:00:39;;;;;;;9.43;6.65;;;18.30;99.90;;;;;;9861660;30;20482;-80
2022/09/26 14:05:42;;;;;;;12.18;8.45;;;18.30;99.90;;;;;;9859780;30;20055;-80
2022/09/26 14:10:52;;;;;;;12.35;8.98;;;17.90;99.90;;;;;;9842084;30;20743;-79
2022/09/26 14:16:00;;;;;;;7.43;6.22;;;17.50;99.90;;;;;;9854979;30;20059;-79
2022/09/26 14:21:15;;;;;;;34.03;19.73;;;17.30;99.90;;;;;;9849376;30;20036;-80
2022/09/26 14:26:27;;;;;;;9.77;6.40;;;17.10;99.90;;;;;;9836008;30;20100;-80
2022/09/26 14:31:33;;;;;;;10.18;6.15;;;17.10;99.90;;;;;;9844034;30;20371;-80
2022/09/26 14:36:34;;;;;;;14.80;9.45;;;17.10;99.90;;;;;;9830078;30;20600;-80
2022/09/26 14:41:35;;;;;;;10.60;7.63;;;17.00;99.90;;;;;;9838188;30;20028;-79
2022/09/26 14:46:36;;;;;;;8.35;6.65;;;16.80;99.90;;;;;;9849054;30;20044;-80
2022/09/26 14:51:40;;;;;;;15.63;9.90;;;16.60;99.90;;;;;;9848162;30;20088;-80
2022/09/26 14:56:43;;;;;;;18.85;12.45;;;16.40;99.90;;;;;;9842603;30;20075;-78
2022/09/26 15:01:44;;;;;;;25.80;14.75;;;16.30;99.90;;;;;;9857766;30;20152;-80
2022/09/26 15:06:59;;;;;;;17.45;11.48;;;16.10;99.90;;;;;;9856874;30;20397;-78
2022/09/26 15:12:07;;;;;;;10.90;6.68;;;16.10;99.90;;;;;;9849987;30;20020;-81
2022/09/26 15:17:18;;;;;;;6.25;4.38;;;15.90;99.90;;;;;;9857655;30;20087;-80
2022/09/26 15:22:23;;;;;;;6.55;4.95;;;15.50;99.90;;;;;;9858321;30;20034;-80
2022/09/26 15:27:28;;;;;;;6.57;4.93;;;15.00;99.90;;;;;;9861774;30;20043;-79
2022/09/26 15:32:31;;;;;;;8.95;6.05;;;14.60;99.90;;;;;;9864097;30;20040;-79
2022/09/26 15:37:34;;;;;;;7.85;5.55;;;14.40;99.90;;;;;;9862438;30;20600;-79
2022/09/26 15:47:58;;;;;;;7.47;4.95;;;14.10;99.90;;;;;;9860713;30;20471;-79
2022/09/26 15:53:21;;;;;;;9.73;5.47;;;13.90;99.90;;;;;;9862816;30;20078;-79
2022/09/26 15:58:45;;;;;;;8.15;5.88;;;13.80;99.90;;;;;;9860366;30;20059;-80
2022/09/26 16:03:58;;;;;;;9.02;5.70;;;13.60;99.90;;;;;;9847549;30;20055;-79
2022/09/26 16:09:17;;;;;;;13.93;8.98;;;13.50;99.90;;;;;;9855294;30;20089;-80
2022/09/26 16:14:39;;;;;;;12.18;7.70;;;13.30;99.90;;;;;;9860468;30;20047;-79
2022/09/26 16:19:54;;;;;;;10.27;7.43;;;13.10;99.90;;;;;;9857808;30;20485;-79
2022/09/26 16:25:21;;;;;;;10.18;7.50;;;12.90;99.90;;;;;;9858273;30;20097;-80
2022/09/26 16:30:26;;;;;;;15.57;9.23;;;12.80;99.90;;;;;;9827644;30;21068;-80
2022/09/26 16:35:28;;;;;;;15.10;8.98;;;12.70;99.90;;;;;;9862389;30;20487;-80
2022/09/26 16:40:30;;;;;;;16.13;9.05;;;12.50;99.90;;;;;;9862673;30;20040;-79
2022/09/26 16:45:31;;;;;;;31.88;19.65;;;12.30;99.90;;;;;;9862507;30;20081;-79
2022/09/26 16:50:34;;;;;;;22.50;14.75;;;12.10;99.90;;;;;;9863044;30;20714;-80
2022/09/26 16:55:36;;;;;;;19.35;13.00;;;12.10;99.90;;;;;;9866050;30;20046;-81
2022/09/26 17:05:59;;;;;;;12.02;7.85;;;12.00;99.90;;;;;;9863564;30;20051;-80
2022/09/26 17:11:01;;;;;;;11.93;7.38;;;11.90;99.90;;;;;;9863303;30;20397;-80
2022/09/26 17:16:02;;;;;;;12.32;8.23;;;11.60;99.90;;;;;;9857321;30;20125;-81
2022/09/26 17:21:03;;;;;;;14.95;9.43;;;11.40;99.90;;;;;;9846943;30;20131;-81
2022/09/26 17:26:07;;;;;;;15.77;9.60;;;11.20;99.90;;;;;;9860454;30;20674;-80
2022/09/26 17:31:17;;;;;;;19.92;12.07;;;11.10;99.90;;;;;;9862888;30;20062;-80
2022/09/26 17:36:22;;;;;;;20.48;12.20;;;11.00;99.90;;;;;;9860151;30;20072;-80
2022/09/26 17:41:24;;;;;;;34.13;18.80;;;10.80;99.90;;;;;;9847583;30;20028;-80
2022/09/26 17:46:24;;;;;;;59.90;37.83;;;10.70;99.90;;;;;;9858984;30;20540;-80
2022/09/26 17:51:25;;;;;;;114.70;66.90;;;10.60;99.90;;;;;;9857551;30;20040;-81
2022/09/26 17:56:26;;;;;;;79.97;48.00;;;10.60;99.90;;;;;;9858105;30;20593;-80
2022/09/26 18:01:32;;;;;;;66.00;39.70;;;10.50;99.90;;;;;;9858133;30;20036;-79
2022/09/26 18:06:34;;;;;;;57.50;33.08;;;10.60;99.90;;;;;;9857102;30;20501;-79
2022/09/26 18:11:36;;;;;;;29.63;18.20;;;10.40;99.90;;;;;;9855544;30;20122;-81
2022/09/26 18:16:36;;;;;;;21.33;13.10;;;10.30;99.90;;;;;;9840984;30;20051;-79
2022/09/26 18:21:38;;;;;;;22.83;13.80;;;10.40;99.90;;;;;;9862300;30;20366;-80
2022/09/26 18:26:49;;;;;;;22.45;14.70;;;10.30;99.90;;;;;;9857263;30;20032;-81
2022/09/26 18:31:50;;;;;;;21.00;13.27;;;10.20;99.90;;;;;;9860651;30;20035;-82
2022/09/26 18:36:55;;;;;;;20.63;12.88;;;10.20;99.90;;;;;;9863034;30;20050;-83
2022/09/26 18:42:01;;;;;;;27.10;14.38;;;10.10;99.90;;;;;;9864035;30;20059;-81
2022/09/26 18:47:05;;;;;;;26.08;16.73;;;10.00;99.90;;;;;;9861381;30;20466;-81
2022/09/26 18:52:14;;;;;;;33.35;17.95;;;10.00;99.90;;;;;;9861866;30;20109;-81
2022/09/26 19:02:37;;;;;;;32.15;16.90;;;9.90;99.90;;;;;;9860013;30;20063;-81
2022/09/26 19:07:39;;;;;;;25.03;14.60;;;9.90;99.90;;;;;;9857844;30;20523;-81
2022/09/26 19:12:39;;;;;;;31.27;15.80;;;9.70;99.90;;;;;;9854149;30;20443;-79
2022/09/26 19:17:40;;;;;;;40.50;20.23;;;9.60;99.90;;;;;;9851795;30;20047;-80
2022/09/26 19:22:41;;;;;;;26.67;15.73;;;9.70;99.90;;;;;;9855640;30;20058;-80
2022/09/26 19:27:47;;;;;;;28.77;17.23;;;9.70;99.90;;;;;;9858986;30;20049;-80
2022/09/26 19:32:54;;;;;;;23.50;14.43;;;9.70;99.90;;;;;;9856145;30;20148;-81
2022/09/26 19:37:56;;;;;;;25.55;13.93;;;9.80;99.90;;;;;;9859546;30;20393;-81
2022/09/26 19:42:56;;;;;;;21.50;12.80;;;9.70;99.90;;;;;;9838811;30;20028;-81
2022/09/26 19:47:58;;;;;;;26.87;15.37;;;9.70;99.90;;;;;;9840325;30;20035;-80
2022/09/26 19:52:58;;;;;;;33.27;18.30;;;9.70;99.90;;;;;;9861806;30;20086;-80
2022/09/26 19:58:11;;;;;;;41.37;22.67;;;9.70;99.90;;;;;;9860238;30;20573;-83
2022/09/26 20:03:17;;;;;;;128.93;80.77;;;9.80;99.90;;;;;;9839357;30;20177;-81
2022/09/26 20:08:20;;;;;;;;;;;9.80;99.90;;;;;;9860945;30;20091;-82
2022/09/26 20:13:21;;;;;;;196.23;115.80;;;9.70;99.90;;;;;;9854694;30;19917;-82
2022/09/26 20:18:22;;;;;;;285.17;153.03;;;9.60;99.90;;;;;;9855955;30;20047;-80
2022/09/26 20:23:25;;;;;;;442.07;214.43;;;9.50;99.90;;;;;;9860654;30;20040;-80
2022/09/26 20:28:26;;;;;;;325.23;187.30;;;9.40;99.90;;;;;;9855198;30;20031;-80
2022/09/26 20:33:27;;;;;;;313.03;150.60;;;9.30;99.90;;;;;;9854325;30;20485;-83
2022/09/26 20:38:41;;;;;;;264.77;124.83;;;9.10;99.90;;;;;;9859744;30;20501;-80
2022/09/26 20:43:45;;;;;;;152.40;89.40;;;9.00;99.90;;;;;;9856242;30;20032;-83
2022/09/26 20:48:47;;;;;;;188.97;97.93;;;9.00;99.90;;;;;;9857782;30;20063;-80
2022/09/26 20:53:47;;;;;;;132.50;78.33;;;8.90;99.90;;;;;;9858683;30;20079;-81
2022/09/26 20:58:48;;;;;;;195.17;95.70;;;9.00;99.90;;;;;;9843591;30;20127;-81
2022/09/26 21:03:51;;;;;;;102.90;63.73;;;9.00;99.90;;;;;;9856220;30;20085;-80
2022/09/26 21:08:52;;;;;;;124.73;68.67;;;9.20;99.90;;;;;;9843621;30;20042;-82
2022/09/26 21:13:52;;;;;;;101.90;56.70;;;9.30;99.90;;;;;;9862123;30;20044;-80
2022/09/26 21:18:53;;;;;;;107.47;52.03;;;9.50;99.90;;;;;;9866150;30;20051;-81
2022/09/26 21:23:54;;;;;;;87.57;44.27;;;9.60;99.90;;;;;;9865518;30;20046;-81
2022/09/26 21:28:56;;;;;;;71.43;38.10;;;9.60;99.90;;;;;;9849457;30;20094;-80
2022/09/26 21:33:58;;;;;;;60.57;34.43;;;9.60;99.90;;;;;;9847519;30;20067;-82
2022/09/26 21:38:59;;;;;;;121.40;55.73;;;9.60;99.90;;;;;;9865797;30;20040;-81
2022/09/26 21:44:07;;;;;;;51.63;28.53;;;9.50;99.90;;;;;;9864169;30;20408;-80
2022/09/26 21:49:07;;;;;;;63.63;28.17;;;9.50;99.90;;;;;;9864966;30;20436;-81
2022/09/26 21:54:15;;;;;;;61.07;32.37;;;9.30;99.90;;;;;;9864700;30;20039;-80
2022/09/26 21:59:20;;;;;;;105.60;34.83;;;9.10;99.90;;;;;;9864495;30;20044;-81
2022/09/26 22:04:21;;;;;;;50.47;29.43;;;8.90;99.90;;;;;;9863384;30;20084;-81
2022/09/26 22:09:22;;;;;;;85.57;44.53;;;8.80;99.90;;;;;;9847997;30;20031;-80
2022/09/26 22:14:22;;;;;;;96.03;41.60;;;8.60;99.90;;;;;;9863134;30;20590;-81
2022/09/26 22:19:23;;;;;;;86.37;41.60;;;8.50;99.90;;;;;;9863899;30;20819;-81
2022/09/26 22:24:23;;;;;;;94.73;43.07;;;8.40;99.90;;;;;;9863008;30;20070;-80
2022/09/26 22:29:25;;;;;;;76.73;41.13;;;8.40;99.90;;;;;;9863851;30;20044;-82
2022/09/26 22:34:25;;;;;;;66.40;38.30;;;8.40;99.90;;;;;;9862602;30;20113;-81
2022/09/26 22:39:26;;;;;;;110.63;47.70;;;8.40;99.90;;;;;;9863511;30;20045;-80
2022/09/26 22:44:26;;;;;;;102.27;48.43;;;8.30;99.90;;;;;;9862058;30;20032;-80
2022/09/26 22:49:27;;;;;;;311.13;67.43;;;8.30;99.90;;;;;;9862137;30;20039;-81
2022/09/26 22:54:28;;;;;;;403.63;76.53;;;8.30;99.90;;;;;;9861700;30;20146;-81
2022/09/26 22:59:28;;;;;;;178.50;58.03;;;8.30;99.90;;;;;;9862451;30;20142;-83
2022/09/26 23:04:45;;;;;;;94.43;48.27;;;8.30;99.90;;;;;;9842427;30;20055;-81
2022/09/26 23:09:46;;;;;;;144.13;53.43;;;8.30;99.90;;;;;;9862449;30;20074;-81
2022/09/26 23:14:46;;;;;;;108.83;50.00;;;8.30;99.90;;;;;;9861302;30;20105;-83
2022/09/26 23:19:47;;;;;;;336.87;74.93;;;8.20;99.90;;;;;;9860907;30;20071;-82
2022/09/26 23:24:47;;;;;;;278.23;65.73;;;8.20;99.90;;;;;;9840627;30;20036;-82
2022/09/26 23:29:48;;;;;;;199.20;54.63;;;8.20;99.90;;;;;;9857866;30;20039;-82
2022/09/26 23:34:48;;;;;;;108.83;49.47;;;8.20;99.90;;;;;;9859700;30;20051;-83
2022/09/26 23:39:49;;;;;;;78.90;42.97;;;8.10;99.90;;;;;;9840199;30;20031;-82
2022/09/26 23:44:49;;;;;;;80.73;44.00;;;8.20;99.90;;;;;;9861005;30;20374;-81
2022/09/26 23:49:50;;;;;;;150.73;51.90;;;8.30;99.90;;;;;;9860218;30;20576;-82
2022/09/26 23:54:51;;;;;;;317.50;69.03;;;8.40;99.90;;;;;;9861000;30;20101;-81
2022/09/26 23:59:52;;;;;;;209.37;63.80;;;8.60;99.90;;;;;;9860995;30;20044;-82
